Strona główna
METAR-TAF:

METAR-TAF

Lotnisko :

Port lotniczy Kasane

Kasane, Botswana

Szerokość geograficzna: 17-49S, Długość geograficzna: 025-09E, wysokość: 968 m

Aktualna obserwacja pogody

Raport powstał 1 godzina i 13 minut temu, godzina 09:00 UTC
Wiatr 12 kt od wschodnio-południowy wschód, zmienny między wschód i południowo-południowy wschód
Temperatura 28°C
Wilgotność 58%
Ciśnienie 1018 hPa
Widzialność 10 km lub więcej
Mało chmury na wysokości 3600 ft

METAR: FBKE 290900Z 11012KT 090V150 9999 FEW036 28/19 Q1018

czas: 12:13 (10:13 UTC)

Prognoza

Raport powstał 4 godziny i 13 minut temu, godzina 06:00 UTC
Prognoza ważna od 29 godzina 09 UTC do 29 godzina 18 UTC
Wiatr 13 kt od wschód
Widzialność 10 km lub więcej
Rozproszone chmury na wysokości 2500 ft
Stopniowe zmiany
od 29 godzina 11 UTC do 29 godzina 18 UTC
Mało chmury na wysokości 3500 ft, Cumulonimbus.

TAF: FBKE 290600Z 2909/2918 08013KT 9999 SCT025 BECMG 2911/2918 FEW035CB

Obserwacja i prognoza pogody dla ponad 4000 lotnisk (raport METAR i TAF).

Dostępne stacje oznaczono żółtymi i czerwonymi punktami na mapie.

Najedź kursorem aby zobaczyć nazwę stacji.

Kliknij aby zobaczyć obserwacje i prognozy pogody.

Aby zmienić mapę: kliknij na zielony przycisk z czarnym krzyżykiem, aby powiększyć; na zielony przycisk z myślnikiem, aby pomniejszyć; na zielone strzałki, aby przejść do map sąsiednich.


METAR-TAF: